createdAt,value
2018-05-10T00:01:21.721Z,19.81
2018-05-10T00:03:55.331Z,19.78
2018-05-10T00:06:21.809Z,19.75
2018-05-10T00:08:48.264Z,19.81
2018-05-10T00:11:14.710Z,19.80
2018-05-10T00:13:41.163Z,19.78
2018-05-10T00:16:07.728Z,19.74
2018-05-10T00:18:34.345Z,19.71
2018-05-10T00:21:01.062Z,19.69
2018-05-10T00:23:27.814Z,19.65
2018-05-10T00:25:54.280Z,19.59
2018-05-10T00:28:21.632Z,19.57
2018-05-10T00:30:48.377Z,19.47
2018-05-10T00:33:14.982Z,19.51
2018-05-10T00:35:41.786Z,19.46
2018-05-10T00:38:08.340Z,19.40
2018-05-10T00:40:34.911Z,19.37
2018-05-10T00:43:01.550Z,19.29
2018-05-10T00:45:28.369Z,19.27
2018-05-10T00:47:54.970Z,19.22
2018-05-10T00:50:21.601Z,19.18
2018-05-10T00:52:48.173Z,19.18
2018-05-10T00:55:14.739Z,19.18
2018-05-10T00:57:41.345Z,19.16
2018-05-10T01:00:07.952Z,19.14
2018-05-10T01:02:34.536Z,19.14
2018-05-10T01:05:01.225Z,19.08
2018-05-10T01:07:29.949Z,19.01
2018-05-10T01:09:56.480Z,19.07
2018-05-10T01:12:23.034Z,19.15
2018-05-10T01:14:49.646Z,19.13
2018-05-10T01:17:16.406Z,19.04
2018-05-10T01:19:42.896Z,19.01
2018-05-10T01:22:09.457Z,18.99
2018-05-10T01:24:36.039Z,18.96
2018-05-10T01:27:02.534Z,18.94
2018-05-10T01:29:29.064Z,18.92
2018-05-10T01:31:55.559Z,18.87
2018-05-10T01:34:22.264Z,18.88
2018-05-10T01:36:48.749Z,18.80
2018-05-10T01:39:15.192Z,18.78
2018-05-10T01:41:41.706Z,18.77
2018-05-10T01:44:08.212Z,18.76
2018-05-10T01:46:34.756Z,18.76
2018-05-10T01:49:01.294Z,18.69
2018-05-10T01:51:27.914Z,18.73
2018-05-10T01:53:54.505Z,18.77
2018-05-10T01:56:20.985Z,18.83
2018-05-10T01:58:47.724Z,18.78
2018-05-10T02:01:14.219Z,18.70
2018-05-10T02:03:40.839Z,18.69
2018-05-10T02:06:07.496Z,18.63
2018-05-10T02:08:34.067Z,18.60
2018-05-10T02:13:29.741Z,18.59
2018-05-10T02:15:56.250Z,18.63
2018-05-10T02:18:22.806Z,18.69
2018-05-10T02:20:49.342Z,18.73
2018-05-10T02:23:16.013Z,18.75
2018-05-10T02:25:42.655Z,18.75
2018-05-10T02:28:09.201Z,18.65
2018-05-10T02:30:35.827Z,18.63
2018-05-10T02:33:02.370Z,18.63
2018-05-10T02:35:29.037Z,18.59
2018-05-10T02:37:55.653Z,18.53
2018-05-10T02:40:22.283Z,18.53
2018-05-10T02:42:49.074Z,18.56
2018-05-10T02:45:15.669Z,18.61
2018-05-10T02:47:42.472Z,18.68
2018-05-10T02:50:09.044Z,18.63
2018-05-10T02:52:35.726Z,18.54
2018-05-10T02:55:02.466Z,18.47
2018-05-10T02:57:29.267Z,18.45
2018-05-10T02:59:55.787Z,18.41
2018-05-10T03:02:22.316Z,18.39
2018-05-10T03:04:48.981Z,18.36
2018-05-10T03:07:15.625Z,18.34
2018-05-10T03:09:42.123Z,18.42
2018-05-10T03:12:09.001Z,18.41
2018-05-10T03:14:35.658Z,18.40
2018-05-10T03:17:02.324Z,18.31
2018-05-10T03:19:28.925Z,18.38
2018-05-10T03:21:55.926Z,18.49
2018-05-10T03:24:22.510Z,18.52
2018-05-10T03:26:48.905Z,18.42
2018-05-10T03:29:15.434Z,18.38
2018-05-10T03:31:41.878Z,18.37
2018-05-10T03:34:08.348Z,18.32
2018-05-10T03:36:34.961Z,18.27
2018-05-10T03:39:01.649Z,18.23
2018-05-10T03:41:28.213Z,18.26
2018-05-10T03:43:54.899Z,18.23
2018-05-10T03:46:21.363Z,18.24
2018-05-10T03:48:47.777Z,18.25
2018-05-10T03:51:14.891Z,18.23
2018-05-10T03:53:41.545Z,18.24
2018-05-10T03:56:08.115Z,18.24
2018-05-10T03:58:34.606Z,18.26
2018-05-10T04:01:01.241Z,18.30
2018-05-10T04:03:50.698Z,18.38
2018-05-10T04:06:29.553Z,18.43
2018-05-10T04:09:08.216Z,18.42
2018-05-10T04:11:34.689Z,18.44
2018-05-10T04:14:01.241Z,18.50
2018-05-10T04:16:27.984Z,18.55
2018-05-10T04:18:54.472Z,18.61
2018-05-10T04:21:21.077Z,18.59
2018-05-10T04:23:47.512Z,18.63
2018-05-10T04:26:14.112Z,18.66
2018-05-10T04:28:40.540Z,18.63
2018-05-10T04:31:07.324Z,18.67
2018-05-10T04:33:34.105Z,18.68
2018-05-10T04:36:00.571Z,18.66
2018-05-10T04:38:27.049Z,18.78
2018-05-10T04:40:53.685Z,18.77
2018-05-10T04:43:20.142Z,18.77
2018-05-10T04:45:46.686Z,18.80
2018-05-10T04:48:13.162Z,18.89
2018-05-10T04:50:39.690Z,18.93
2018-05-10T04:53:06.255Z,18.97
2018-05-10T04:55:32.899Z,18.99
2018-05-10T04:57:59.416Z,19.07
2018-05-10T05:00:25.837Z,19.10
2018-05-10T05:02:52.603Z,19.16
2018-05-10T05:05:19.266Z,19.24
2018-05-10T05:07:45.988Z,19.30
2018-05-10T05:10:12.620Z,19.39
2018-05-10T05:12:39.078Z,19.43
2018-05-10T05:15:05.658Z,19.52
2018-05-10T05:17:32.119Z,19.54
2018-05-10T05:19:59.016Z,19.62
2018-05-10T05:22:25.674Z,19.64
2018-05-10T05:24:52.355Z,19.72
2018-05-10T05:27:18.991Z,19.77
2018-05-10T05:29:45.557Z,19.87
2018-05-10T05:32:12.165Z,19.92
2018-05-10T05:34:38.749Z,19.96
2018-05-10T05:37:05.602Z,19.96
2018-05-10T05:39:32.215Z,19.96
2018-05-10T05:41:58.969Z,20.01
2018-05-10T05:44:25.481Z,20.06
2018-05-10T05:46:52.053Z,20.17
2018-05-10T05:49:18.629Z,20.28
2018-05-10T05:51:45.163Z,20.39
2018-05-10T05:54:11.864Z,20.46
2018-05-10T05:56:38.387Z,20.50
2018-05-10T05:59:05.056Z,20.58
2018-05-10T06:01:31.540Z,20.66
2018-05-10T06:03:58.296Z,20.73
2018-05-10T06:06:24.881Z,20.64
2018-05-10T06:08:51.400Z,20.72
2018-05-10T06:11:17.957Z,20.71
2018-05-10T06:13:44.714Z,20.74
2018-05-10T06:16:11.298Z,20.84
2018-05-10T06:18:37.916Z,20.89
2018-05-10T06:21:04.411Z,20.93
2018-05-10T06:23:30.888Z,20.98
2018-05-10T06:25:57.459Z,21.00
2018-05-10T06:28:24.096Z,21.08
2018-05-10T06:30:50.624Z,21.15
2018-05-10T06:33:17.098Z,21.18
2018-05-10T06:35:43.679Z,21.28
2018-05-10T06:38:10.234Z,21.24
2018-05-10T06:40:37.423Z,21.31
2018-05-10T06:43:04.145Z,21.35
2018-05-10T06:45:30.667Z,21.47
2018-05-10T06:47:57.315Z,21.54
2018-05-10T06:50:23.734Z,21.62
2018-05-10T06:52:50.307Z,21.62
2018-05-10T06:55:16.928Z,21.55
2018-05-10T06:57:43.483Z,21.61
2018-05-10T07:00:10.103Z,21.54
2018-05-10T07:02:36.597Z,21.57
2018-05-10T07:05:03.209Z,21.52
2018-05-10T07:07:29.657Z,21.28
2018-05-10T07:09:56.418Z,21.25
2018-05-10T07:12:22.975Z,21.26
2018-05-10T07:14:49.568Z,21.41
2018-05-10T07:17:16.070Z,21.56
2018-05-10T07:19:42.762Z,21.60
2018-05-10T07:22:09.470Z,21.60
2018-05-10T07:24:35.977Z,21.65
2018-05-10T07:27:02.618Z,21.70
2018-05-10T07:29:29.259Z,21.75
2018-05-10T07:31:55.698Z,21.79
2018-05-10T07:34:22.270Z,21.53
2018-05-10T07:36:48.946Z,21.52
2018-05-10T07:39:15.602Z,21.40
2018-05-10T07:41:42.227Z,21.40
2018-05-10T07:44:08.850Z,21.05
2018-05-10T07:46:35.459Z,21.17
2018-05-10T07:49:02.090Z,21.36
2018-05-10T07:51:28.642Z,21.44
2018-05-10T07:53:55.130Z,21.52
2018-05-10T07:56:21.767Z,21.59
2018-05-10T07:58:48.388Z,21.61
2018-05-10T08:01:15.091Z,21.65
2018-05-10T08:03:41.770Z,21.65
2018-05-10T08:06:08.446Z,21.68
2018-05-10T08:08:35.036Z,21.71
2018-05-10T08:11:01.682Z,21.74
2018-05-10T08:13:28.164Z,21.85
2018-05-10T08:15:54.875Z,21.77
2018-05-10T08:18:21.470Z,21.81
2018-05-10T08:20:48.217Z,21.95
2018-05-10T08:23:14.771Z,21.97
2018-05-10T08:25:41.598Z,21.83
2018-05-10T08:28:08.440Z,21.86
2018-05-10T08:30:36.090Z,21.92
2018-05-10T08:33:03.723Z,21.93
2018-05-10T08:35:30.377Z,21.94
2018-05-10T08:37:57.049Z,21.92
2018-05-10T08:40:23.859Z,21.88
2018-05-10T08:42:51.298Z,21.91
2018-05-10T08:45:17.972Z,21.96
2018-05-10T08:47:44.642Z,22.00
2018-05-10T08:50:11.375Z,22.13
2018-05-10T08:52:37.987Z,22.20
2018-05-10T08:55:04.699Z,22.28
2018-05-10T08:57:31.244Z,22.14
2018-05-10T09:00:04.836Z,22.10
2018-05-10T09:02:31.546Z,22.10
2018-05-10T09:04:58.050Z,22.16
2018-05-10T09:07:24.814Z,22.26
2018-05-10T09:09:51.625Z,22.28
2018-05-10T09:12:18.248Z,22.22
2018-05-10T09:14:44.844Z,22.18
2018-05-10T09:17:11.392Z,22.05
2018-05-10T09:19:37.922Z,22.03
2018-05-10T09:22:04.523Z,22.12
2018-05-10T09:24:31.249Z,22.11
2018-05-10T09:26:57.924Z,22.20
2018-05-10T09:29:24.679Z,22.28
2018-05-10T09:31:51.329Z,22.23
2018-05-10T09:34:18.093Z,22.33
2018-05-10T09:36:44.729Z,22.42
2018-05-10T09:39:11.309Z,22.45
2018-05-10T09:41:37.943Z,22.41
2018-05-10T09:44:04.415Z,22.35
2018-05-10T09:46:31.752Z,22.38
2018-05-10T09:48:58.644Z,22.49
2018-05-10T09:51:25.329Z,22.53
2018-05-10T09:53:51.934Z,22.42
2018-05-10T09:56:18.484Z,22.45
2018-05-10T09:58:45.018Z,22.46
2018-05-10T10:01:11.480Z,22.60
2018-05-10T10:03:38.167Z,22.62
2018-05-10T10:06:04.867Z,22.65
2018-05-10T10:08:31.580Z,22.75
2018-05-10T10:10:58.094Z,22.78
2018-05-10T10:13:24.639Z,22.66
2018-05-10T10:15:51.213Z,22.45
2018-05-10T10:18:17.793Z,22.40
2018-05-10T10:20:44.422Z,22.36
2018-05-10T10:23:10.963Z,22.35
2018-05-10T10:25:37.575Z,22.28
2018-05-10T10:28:04.160Z,22.29
2018-05-10T10:30:30.865Z,22.37
2018-05-10T10:32:57.499Z,22.29
2018-05-10T10:35:24.155Z,22.28
2018-05-10T10:37:50.861Z,22.27
2018-05-10T10:40:17.647Z,22.13
2018-05-10T10:42:47.233Z,22.19
2018-05-10T10:45:13.816Z,22.25
2018-05-10T10:47:40.433Z,22.22
2018-05-10T10:50:14.050Z,22.18
2018-05-10T10:52:40.517Z,22.19
2018-05-10T10:55:07.224Z,22.10
2018-05-10T10:57:33.878Z,22.08
2018-05-10T11:00:00.588Z,22.07
2018-05-10T11:02:27.351Z,22.14
2018-05-10T11:04:53.832Z,22.13
2018-05-10T11:07:20.546Z,22.11
2018-05-10T11:09:47.078Z,22.08
2018-05-10T11:12:13.721Z,22.01
2018-05-10T11:14:40.373Z,21.86
2018-05-10T11:17:06.874Z,21.74
2018-05-10T11:19:33.546Z,21.76
2018-05-10T11:22:00.041Z,21.84
2018-05-10T11:24:26.667Z,21.95
2018-05-10T11:26:53.255Z,22.02
2018-05-10T11:29:19.946Z,21.96
2018-05-10T11:31:46.542Z,22.07
2018-05-10T11:34:13.186Z,22.06
2018-05-10T11:36:39.992Z,22.13
2018-05-10T11:39:06.756Z,21.96
2018-05-10T11:41:33.500Z,21.91
2018-05-10T11:44:00.049Z,21.64
2018-05-10T11:46:26.729Z,21.58
2018-05-10T11:48:53.447Z,21.40
2018-05-10T11:51:20.006Z,21.34
2018-05-10T11:53:46.716Z,21.35
2018-05-10T11:56:13.414Z,21.25
2018-05-10T11:58:40.508Z,21.04
2018-05-10T12:01:07.097Z,21.12
2018-05-10T12:03:33.747Z,21.01
2018-05-10T12:06:00.386Z,20.75
2018-05-10T12:08:26.888Z,20.65
2018-05-10T12:10:53.496Z,20.60
2018-05-10T12:13:20.044Z,20.83
2018-05-10T12:15:46.583Z,20.97
2018-05-10T12:18:13.272Z,21.01
2018-05-10T12:20:39.912Z,21.13
2018-05-10T12:23:06.422Z,21.20
2018-05-10T12:25:33.332Z,21.10
2018-05-10T12:28:00.105Z,20.96
2018-05-10T12:30:26.793Z,20.99
2018-05-10T12:32:53.260Z,21.14
2018-05-10T12:35:19.977Z,21.27
2018-05-10T12:37:46.813Z,21.25
2018-05-10T12:40:13.352Z,21.48
2018-05-10T12:42:40.061Z,21.59
2018-05-10T12:45:06.909Z,21.72
2018-05-10T12:47:33.482Z,21.85
2018-05-10T12:50:00.108Z,21.85
2018-05-10T12:52:26.643Z,21.73
2018-05-10T12:54:53.434Z,21.61
2018-05-10T12:57:20.141Z,21.69
2018-05-10T12:59:46.771Z,21.66
2018-05-10T13:02:13.343Z,21.42
2018-05-10T13:04:39.867Z,21.25
2018-05-10T13:07:06.563Z,21.00
2018-05-10T13:09:33.195Z,20.94
2018-05-10T13:11:59.863Z,20.79
2018-05-10T13:14:26.708Z,20.71
2018-05-10T13:16:53.299Z,20.63
2018-05-10T13:19:19.852Z,20.63
2018-05-10T13:21:46.617Z,20.57
2018-05-10T13:24:13.326Z,20.65
2018-05-10T13:26:39.867Z,20.71
2018-05-10T13:29:06.445Z,20.60
2018-05-10T13:31:32.984Z,20.66
2018-05-10T13:33:59.790Z,20.62
2018-05-10T13:36:26.376Z,20.71
2018-05-10T13:38:52.998Z,20.84
2018-05-10T13:41:19.649Z,20.87
2018-05-10T13:43:46.363Z,20.84
2018-05-10T13:46:13.089Z,20.85
2018-05-10T13:48:39.725Z,20.89
2018-05-10T13:51:06.410Z,20.73
2018-05-10T13:53:33.002Z,20.87
2018-05-10T13:55:59.509Z,20.97
2018-05-10T13:58:26.116Z,21.02
2018-05-10T14:00:52.599Z,21.06
2018-05-10T14:03:19.223Z,21.13
2018-05-10T14:05:45.848Z,21.19
2018-05-10T14:08:13.800Z,21.25
2018-05-10T14:10:40.957Z,21.27
2018-05-10T14:13:07.563Z,21.37
2018-05-10T14:15:34.170Z,21.32
2018-05-10T14:18:00.839Z,21.36
2018-05-10T14:20:27.321Z,21.40
2018-05-10T14:22:54.146Z,21.29
2018-05-10T14:25:20.872Z,21.28
2018-05-10T14:27:47.449Z,21.41
2018-05-10T14:30:14.130Z,21.46
2018-05-10T14:32:40.736Z,21.46
2018-05-10T14:35:07.403Z,21.40
2018-05-10T14:37:34.061Z,21.42
2018-05-10T14:40:01.017Z,21.44
2018-05-10T14:42:27.687Z,21.43
2018-05-10T14:44:54.343Z,21.45
2018-05-10T14:47:20.971Z,21.42
2018-05-10T14:49:48.075Z,21.40
2018-05-10T14:52:14.781Z,21.46
2018-05-10T14:54:41.393Z,21.45
2018-05-10T14:57:07.919Z,21.47
2018-05-10T14:59:34.719Z,21.40
2018-05-10T15:02:01.354Z,21.31
2018-05-10T15:04:27.873Z,21.33
2018-05-10T15:06:54.631Z,21.38
2018-05-10T15:09:21.133Z,21.46
2018-05-10T15:11:47.643Z,21.41
2018-05-10T15:14:14.519Z,21.33
2018-05-10T15:16:41.271Z,21.21
2018-05-10T15:19:07.775Z,21.11
2018-05-10T15:21:34.465Z,21.10
2018-05-10T15:24:01.113Z,20.94
2018-05-10T15:26:27.623Z,21.01
2018-05-10T15:28:54.268Z,20.97
2018-05-10T15:31:20.797Z,20.93
2018-05-10T15:33:47.233Z,20.83
2018-05-10T15:36:14.011Z,20.68
2018-05-10T15:38:40.646Z,20.77
2018-05-10T15:41:07.197Z,20.91
2018-05-10T15:43:33.926Z,20.94
2018-05-10T15:46:00.633Z,20.98
2018-05-10T15:48:27.145Z,21.04
2018-05-10T15:50:53.621Z,21.12
2018-05-10T15:53:21.193Z,21.26
2018-05-10T15:55:47.897Z,21.21
2018-05-10T15:58:14.477Z,21.16
2018-05-10T16:00:41.034Z,21.26
2018-05-10T16:03:07.679Z,21.18
2018-05-10T16:05:34.464Z,21.16
2018-05-10T16:08:00.995Z,21.14
2018-05-10T16:10:27.598Z,21.17
2018-05-10T16:12:54.069Z,20.99
2018-05-10T16:15:20.636Z,21.08
2018-05-10T16:17:47.181Z,21.10
2018-05-10T16:20:13.656Z,21.15
2018-05-10T16:22:40.195Z,21.09
2018-05-10T16:25:06.741Z,20.95
2018-05-10T16:27:33.337Z,20.73
2018-05-10T16:30:00.106Z,20.87
2018-05-10T16:32:26.694Z,21.00
2018-05-10T16:34:53.284Z,21.10
2018-05-10T16:37:19.793Z,20.99
2018-05-10T16:39:46.321Z,21.05
2018-05-10T16:42:13.077Z,21.17
2018-05-10T16:44:39.598Z,21.22
2018-05-10T16:47:06.358Z,21.24
2018-05-10T16:49:33.673Z,21.16
2018-05-10T16:52:00.353Z,21.11
2018-05-10T16:54:27.341Z,21.16
2018-05-10T16:56:53.999Z,21.16
2018-05-10T16:59:20.559Z,21.17
2018-05-10T17:01:47.223Z,21.08
2018-05-10T17:04:14.334Z,21.14
2018-05-10T17:06:41.003Z,21.14
2018-05-10T17:09:07.726Z,20.95
2018-05-10T17:11:34.400Z,20.82
2018-05-10T17:14:01.104Z,20.79
2018-05-10T17:16:27.763Z,20.82
2018-05-10T17:18:55.379Z,20.77
2018-05-10T17:21:23.280Z,20.68
2018-05-10T17:23:50.052Z,20.65
2018-05-10T17:26:16.627Z,20.60
2018-05-10T17:28:43.270Z,20.54
2018-05-10T17:31:09.901Z,20.44
2018-05-10T17:33:36.432Z,20.33
2018-05-10T17:36:03.035Z,20.34
2018-05-10T17:38:29.734Z,20.42
2018-05-10T17:40:56.625Z,20.46
2018-05-10T17:43:23.684Z,20.54
2018-05-10T17:45:50.464Z,20.52
2018-05-10T17:48:17.143Z,20.60
2018-05-10T17:50:44.321Z,20.65
2018-05-10T17:53:11.358Z,20.68
2018-05-10T17:55:38.062Z,20.69
2018-05-10T17:58:04.556Z,20.70
2018-05-10T18:00:31.109Z,20.71
2018-05-10T18:02:57.692Z,20.74
2018-05-10T18:05:24.116Z,20.76
2018-05-10T18:07:50.606Z,20.79
2018-05-10T18:10:17.343Z,20.71
2018-05-10T18:12:43.928Z,20.73
2018-05-10T18:15:11.019Z,20.77
2018-05-10T18:17:37.488Z,20.78
2018-05-10T18:20:04.136Z,20.77
2018-05-10T18:22:31.042Z,20.77
2018-05-10T18:24:58.420Z,20.74
2018-05-10T18:27:25.047Z,20.74
2018-05-10T18:29:51.738Z,20.79
2018-05-10T18:32:18.220Z,20.78
2018-05-10T18:34:44.880Z,20.66
2018-05-10T18:37:11.482Z,20.61
2018-05-10T18:39:37.949Z,20.58
2018-05-10T18:42:04.432Z,20.56
2018-05-10T18:44:31.008Z,20.51
2018-05-10T18:46:57.592Z,20.48
2018-05-10T18:49:24.377Z,20.46
2018-05-10T18:51:50.977Z,20.53
2018-05-10T18:54:17.435Z,20.44
2018-05-10T18:56:44.009Z,20.41
2018-05-10T18:59:10.689Z,20.45
2018-05-10T19:01:37.064Z,20.45
2018-05-10T19:04:03.658Z,20.47
2018-05-10T19:06:32.995Z,20.42
2018-05-10T19:08:59.677Z,20.45
2018-05-10T19:11:26.256Z,20.40
2018-05-10T19:13:52.854Z,20.41
2018-05-10T19:16:19.293Z,20.39
2018-05-10T19:18:45.772Z,20.40
2018-05-10T19:21:12.270Z,20.45
2018-05-10T19:23:39.369Z,20.39
2018-05-10T19:26:06.003Z,20.39
2018-05-10T19:28:34.592Z,20.39
2018-05-10T19:31:01.146Z,20.41
2018-05-10T19:33:27.721Z,20.40
2018-05-10T19:35:54.229Z,20.45
2018-05-10T19:38:20.579Z,20.42
2018-05-10T19:40:47.081Z,20.30
2018-05-10T19:43:13.847Z,20.31
2018-05-10T19:45:40.293Z,20.34
2018-05-10T19:48:06.828Z,20.31
2018-05-10T19:50:33.465Z,20.29
2018-05-10T19:53:01.323Z,20.27
2018-05-10T19:55:27.803Z,20.32
2018-05-10T19:57:54.214Z,20.31
2018-05-10T20:00:20.765Z,20.33
2018-05-10T20:02:47.156Z,20.30
2018-05-10T20:05:13.705Z,20.26
2018-05-10T20:07:40.317Z,20.22
2018-05-10T20:10:06.793Z,20.24
2018-05-10T20:12:33.405Z,20.25
2018-05-10T20:14:59.904Z,20.26
2018-05-10T20:17:26.592Z,20.25
2018-05-10T20:19:53.126Z,20.21
2018-05-10T20:22:19.872Z,20.19
2018-05-10T20:24:46.401Z,20.17
2018-05-10T20:27:12.903Z,20.19
2018-05-10T20:29:39.416Z,20.19
2018-05-10T20:32:06.048Z,20.17
2018-05-10T20:34:32.853Z,20.15
2018-05-10T20:36:59.515Z,20.13
2018-05-10T20:39:26.810Z,20.11
2018-05-10T20:41:53.228Z,20.06
2018-05-10T20:44:19.827Z,20.08
2018-05-10T20:46:46.345Z,20.14
2018-05-10T20:49:12.886Z,20.10
2018-05-10T20:51:39.210Z,20.11
2018-05-10T20:54:05.620Z,20.14
2018-05-10T20:56:32.052Z,20.16
2018-05-10T20:58:58.637Z,20.07
2018-05-10T21:01:25.152Z,20.04
2018-05-10T21:03:51.592Z,19.90
2018-05-10T21:06:18.029Z,19.86
2018-05-10T21:08:44.486Z,19.86
2018-05-10T21:11:11.208Z,19.91
2018-05-10T21:13:37.624Z,19.95
2018-05-10T21:16:04.108Z,19.98
2018-05-10T21:18:30.592Z,19.96
2018-05-10T21:20:57.253Z,19.96
2018-05-10T21:23:25.317Z,19.96
2018-05-10T21:25:51.820Z,19.92
2018-05-10T21:28:18.899Z,19.92
2018-05-10T21:30:45.417Z,19.97
2018-05-10T21:33:12.925Z,20.00
2018-05-10T21:35:39.476Z,19.99
2018-05-10T21:38:06.022Z,19.99
2018-05-10T21:40:32.434Z,20.00
2018-05-10T21:42:59.713Z,20.02
2018-05-10T21:45:26.262Z,20.00
2018-05-10T21:47:52.974Z,20.01
2018-05-10T21:50:19.632Z,20.00
2018-05-10T21:52:46.111Z,20.03
2018-05-10T21:55:12.799Z,20.01
2018-05-10T21:57:39.474Z,19.99
2018-05-10T22:00:06.151Z,19.95
2018-05-10T22:02:33.042Z,19.98
2018-05-10T22:04:59.767Z,19.95
2018-05-10T22:07:26.672Z,19.94
2018-05-10T22:09:53.443Z,19.97
2018-05-10T22:12:20.073Z,19.96
2018-05-10T22:14:46.968Z,19.95
2018-05-10T22:17:13.744Z,20.03
2018-05-10T22:19:40.439Z,20.05
2018-05-10T22:22:06.902Z,20.05
2018-05-10T22:24:33.465Z,20.08
2018-05-10T22:27:00.263Z,20.05
2018-05-10T22:29:26.860Z,20.02
2018-05-10T22:31:53.282Z,20.12
2018-05-10T22:34:19.819Z,20.09
2018-05-10T22:36:46.321Z,20.08
2018-05-10T22:39:12.862Z,20.06
2018-05-10T22:41:39.523Z,20.12
2018-05-10T22:44:06.238Z,20.08
2018-05-10T22:46:32.759Z,20.06
2018-05-10T22:48:59.539Z,20.05
2018-05-10T22:51:25.971Z,20.04
2018-05-10T22:53:52.515Z,20.04
2018-05-10T22:56:19.181Z,20.01
2018-05-10T22:58:45.749Z,19.98
2018-05-10T23:01:12.328Z,19.99
2018-05-10T23:03:38.920Z,19.95
2018-05-10T23:06:05.460Z,19.98
2018-05-10T23:08:32.128Z,19.98
2018-05-10T23:10:58.649Z,19.99
2018-05-10T23:13:25.052Z,19.92
2018-05-10T23:15:51.714Z,19.88
2018-05-10T23:18:18.409Z,19.76
2018-05-10T23:20:44.983Z,19.82
2018-05-10T23:23:11.664Z,19.73
2018-05-10T23:25:38.348Z,19.72
2018-05-10T23:28:04.988Z,19.69
2018-05-10T23:30:31.709Z,19.62
2018-05-10T23:32:58.332Z,19.73
2018-05-10T23:35:24.800Z,19.63
2018-05-10T23:37:51.431Z,19.62
2018-05-10T23:40:18.065Z,19.62
2018-05-10T23:42:44.668Z,19.60
2018-05-10T23:45:11.356Z,19.59
2018-05-10T23:47:37.978Z,19.56
2018-05-10T23:50:04.739Z,19.49
2018-05-10T23:52:31.362Z,19.27
2018-05-10T23:54:57.953Z,19.19
2018-05-10T23:57:24.598Z,19.06
2018-05-10T23:59:51.336Z,19.05
